createdAt,value
2024-01-12T00:02:24.503Z,5.25
2024-01-12T00:04:52.302Z,5.19
2024-01-12T00:07:18.932Z,5.20
2024-01-12T00:09:45.406Z,5.18
2024-01-12T00:12:11.924Z,5.18
2024-01-12T00:14:38.424Z,5.23
2024-01-12T00:17:04.904Z,5.22
2024-01-12T00:19:31.306Z,5.21
2024-01-12T00:21:57.813Z,5.17
2024-01-12T00:24:24.767Z,5.09
2024-01-12T00:26:51.424Z,5.06
2024-01-12T00:29:18.066Z,5.01
2024-01-12T00:31:44.920Z,4.98
2024-01-12T00:34:11.484Z,5.01
2024-01-12T00:36:38.007Z,5.05
2024-01-12T00:39:05.219Z,5.08
2024-01-12T00:41:31.855Z,5.11
2024-01-12T00:43:58.902Z,5.13
2024-01-12T00:46:25.352Z,5.15
2024-01-12T00:48:51.987Z,5.15
2024-01-12T00:51:18.972Z,5.17
2024-01-12T00:53:45.647Z,5.23
2024-01-12T00:56:12.266Z,5.23
2024-01-12T00:58:38.738Z,5.23
2024-01-12T01:01:05.356Z,5.26
2024-01-12T01:03:32.231Z,5.23
2024-01-12T01:05:58.841Z,5.22
2024-01-12T01:08:25.561Z,5.26
2024-01-12T01:10:52.084Z,5.23
2024-01-12T01:13:18.621Z,5.23
2024-01-12T01:15:45.088Z,5.28
2024-01-12T01:18:12.338Z,5.28
2024-01-12T01:20:39.396Z,5.33
2024-01-12T01:23:06.210Z,5.37
2024-01-12T01:25:32.692Z,5.35
2024-01-12T01:27:59.201Z,5.37
2024-01-12T01:30:25.689Z,5.38
2024-01-12T01:32:52.445Z,5.40
2024-01-12T01:35:19.162Z,5.43
2024-01-12T01:37:45.687Z,5.41
2024-01-12T01:40:12.446Z,5.35
2024-01-12T01:42:40.223Z,5.32
2024-01-12T01:45:07.104Z,5.28
2024-01-12T01:47:34.041Z,5.27
2024-01-12T01:50:01.421Z,5.26
2024-01-12T01:52:28.918Z,5.25
2024-01-12T01:54:57.915Z,5.22
2024-01-12T01:57:26.842Z,5.24
2024-01-12T01:59:53.698Z,5.24
2024-01-12T02:02:20.386Z,5.20
2024-01-12T02:04:46.908Z,5.22
2024-01-12T02:07:13.421Z,5.21
2024-01-12T02:09:40.758Z,5.18
2024-01-12T02:12:07.980Z,5.16
2024-01-12T02:14:34.615Z,5.22
2024-01-12T02:17:01.279Z,5.24
2024-01-12T02:19:27.755Z,5.21
2024-01-12T02:21:54.311Z,5.13
2024-01-12T02:24:20.776Z,5.10
2024-01-12T02:26:47.338Z,5.10
2024-01-12T02:29:13.984Z,5.11
2024-01-12T02:31:40.810Z,5.13
2024-01-12T02:34:07.719Z,5.19
2024-01-12T02:36:34.230Z,5.25
2024-01-12T02:39:00.697Z,5.26
2024-01-12T02:41:27.285Z,5.23
2024-01-12T02:43:53.773Z,5.25
2024-01-12T02:46:20.352Z,5.31
2024-01-12T02:48:46.900Z,5.35
2024-01-12T02:51:13.388Z,5.39
2024-01-12T02:53:40.009Z,5.39
2024-01-12T02:56:06.634Z,5.35
2024-01-12T02:58:33.413Z,5.35
2024-01-12T03:01:00.683Z,5.38
2024-01-12T03:03:27.542Z,5.38
2024-01-12T03:05:54.194Z,5.36
2024-01-12T03:08:20.916Z,5.37
2024-01-12T03:10:47.400Z,5.32
2024-01-12T03:13:13.886Z,5.28
2024-01-12T03:15:40.358Z,5.32
2024-01-12T03:18:09.495Z,5.35
2024-01-12T03:20:36.499Z,5.33
2024-01-12T03:23:03.192Z,5.38
2024-01-12T03:25:30.002Z,5.43
2024-01-12T03:27:56.421Z,5.43
2024-01-12T03:30:22.971Z,5.42
2024-01-12T03:32:49.675Z,5.43
2024-01-12T03:35:16.615Z,5.45
2024-01-12T03:37:43.248Z,5.47
2024-01-12T03:40:10.333Z,5.49
2024-01-12T03:42:36.744Z,5.46
2024-01-12T03:45:03.423Z,5.42
2024-01-12T03:47:30.191Z,5.38
2024-01-12T03:49:56.729Z,5.36
2024-01-12T03:52:23.213Z,5.38
2024-01-12T03:54:49.681Z,5.37
2024-01-12T03:57:16.705Z,5.37
2024-01-12T03:59:43.396Z,5.38
2024-01-12T04:02:09.923Z,5.38
2024-01-12T04:04:36.369Z,5.42
2024-01-12T04:07:02.863Z,5.44
2024-01-12T04:09:29.410Z,5.45
2024-01-12T04:11:55.936Z,5.46
2024-01-12T04:14:22.476Z,5.45
2024-01-12T04:16:48.974Z,5.43
2024-01-12T04:19:15.556Z,5.40
2024-01-12T04:21:42.039Z,5.37
2024-01-12T04:24:08.684Z,5.38
2024-01-12T04:26:36.371Z,5.37
2024-01-12T04:29:02.886Z,5.33
2024-01-12T04:31:29.386Z,5.30
2024-01-12T04:33:56.103Z,5.25
2024-01-12T04:36:24.009Z,5.24
2024-01-12T04:38:50.677Z,5.22
2024-01-12T04:41:17.286Z,5.23
2024-01-12T04:43:43.743Z,5.21
2024-01-12T04:46:10.443Z,5.17
2024-01-12T04:48:37.127Z,5.15
2024-01-12T04:51:04.019Z,5.14
2024-01-12T04:53:30.565Z,5.10
2024-01-12T04:55:57.144Z,5.11
2024-01-12T04:58:23.667Z,5.13
2024-01-12T05:00:50.351Z,5.11
2024-01-12T05:03:17.388Z,5.09
2024-01-12T05:05:44.169Z,5.07
2024-01-12T05:08:10.804Z,5.09
2024-01-12T05:10:37.275Z,5.07
2024-01-12T05:13:03.940Z,5.01
2024-01-12T05:15:30.455Z,4.95
2024-01-12T05:17:57.082Z,4.92
2024-01-12T05:20:23.743Z,4.96
2024-01-12T05:22:50.201Z,4.96
2024-01-12T05:25:16.775Z,4.91
2024-01-12T05:27:43.237Z,4.84
2024-01-12T05:30:10.466Z,4.78
2024-01-12T05:32:37.295Z,4.76
2024-01-12T05:35:04.027Z,4.75
2024-01-12T05:37:30.597Z,4.68
2024-01-12T05:39:57.077Z,4.63
2024-01-12T05:42:23.530Z,4.64
2024-01-12T05:44:50.101Z,4.65
2024-01-12T05:47:16.651Z,4.65
2024-01-12T05:49:43.181Z,4.66
2024-01-12T05:52:09.603Z,4.67
2024-01-12T05:54:36.056Z,4.64
2024-01-12T05:57:02.741Z,4.63
2024-01-12T05:59:29.293Z,4.66
2024-01-12T06:01:55.960Z,4.70
2024-01-12T06:04:22.456Z,4.67
2024-01-12T06:06:49.850Z,4.70
2024-01-12T06:09:16.503Z,4.69
2024-01-12T06:11:44.217Z,4.72
2024-01-12T06:14:11.628Z,4.71
2024-01-12T06:16:38.711Z,4.74
2024-01-12T06:19:05.438Z,4.80
2024-01-12T06:21:32.009Z,4.83
2024-01-12T06:23:58.640Z,4.87
2024-01-12T06:26:25.207Z,4.88
2024-01-12T06:28:51.704Z,4.84
2024-01-12T06:31:18.256Z,4.83
2024-01-12T06:33:44.820Z,4.83
2024-01-12T06:36:11.401Z,4.85
2024-01-12T06:38:38.680Z,4.83
2024-01-12T06:41:05.308Z,4.82
2024-01-12T06:43:31.821Z,4.79
2024-01-12T06:45:58.432Z,4.80
2024-01-12T06:48:25.083Z,4.77
2024-01-12T06:50:51.766Z,4.74
2024-01-12T06:53:18.569Z,4.74
2024-01-12T06:55:45.066Z,4.76
2024-01-12T06:58:11.535Z,4.80
2024-01-12T07:00:38.025Z,4.81
2024-01-12T07:03:04.944Z,4.80
2024-01-12T07:05:32.162Z,4.79
2024-01-12T07:07:59.031Z,4.76
2024-01-12T07:10:25.530Z,4.78
2024-01-12T07:12:53.221Z,4.76
2024-01-12T07:15:23.893Z,4.78
2024-01-12T07:17:50.604Z,4.77
2024-01-12T07:20:18.611Z,4.80
2024-01-12T07:22:46.685Z,4.83
2024-01-12T07:25:13.319Z,4.82
2024-01-12T07:27:40.562Z,4.80
2024-01-12T07:30:08.473Z,4.78
2024-01-12T07:32:36.394Z,4.80
2024-01-12T07:35:03.265Z,4.80
2024-01-12T07:37:29.861Z,4.78
2024-01-12T07:39:56.354Z,4.76
2024-01-12T07:42:22.923Z,4.75
2024-01-12T07:44:50.522Z,4.73
2024-01-12T07:47:17.371Z,4.72
2024-01-12T07:49:44.386Z,4.69
2024-01-12T07:52:14.954Z,4.66
2024-01-12T07:54:44.101Z,4.63
2024-01-12T07:57:10.620Z,4.60
2024-01-12T07:59:37.607Z,4.62
2024-01-12T08:02:04.361Z,4.63
2024-01-12T08:04:30.931Z,4.62
2024-01-12T08:06:57.758Z,4.64
2024-01-12T08:09:24.442Z,4.66
2024-01-12T08:11:51.002Z,4.70
2024-01-12T08:14:17.646Z,4.73
2024-01-12T08:16:44.197Z,4.75
2024-01-12T08:19:10.732Z,4.75
2024-01-12T08:21:45.474Z,4.72
2024-01-12T08:24:18.501Z,4.66
2024-01-12T08:26:46.714Z,4.69
2024-01-12T08:29:13.451Z,4.75
2024-01-12T08:31:39.911Z,4.81
2024-01-12T08:34:06.566Z,4.84
2024-01-12T08:36:33.180Z,4.84
2024-01-12T08:38:59.737Z,4.87
2024-01-12T08:41:26.480Z,4.89
2024-01-12T08:43:54.325Z,4.87
2024-01-12T08:46:21.393Z,4.87
2024-01-12T08:48:50.197Z,4.89
2024-01-12T08:51:17.573Z,4.91
2024-01-12T08:53:44.229Z,4.96
2024-01-12T08:56:10.773Z,5.02
2024-01-12T08:58:39.329Z,5.08
2024-01-12T09:01:06.263Z,5.14
2024-01-12T09:03:33.081Z,5.14
2024-01-12T09:05:59.900Z,5.16
2024-01-12T09:08:26.364Z,5.22
2024-01-12T09:10:53.038Z,5.25
2024-01-12T09:13:19.540Z,5.28
2024-01-12T09:15:46.043Z,5.33
2024-01-12T09:18:12.762Z,5.36
2024-01-12T09:20:39.403Z,5.37
2024-01-12T09:23:06.682Z,5.38
2024-01-12T09:25:36.046Z,5.42
2024-01-12T09:28:02.539Z,5.47
2024-01-12T09:30:29.147Z,5.53
2024-01-12T09:32:55.901Z,5.57
2024-01-12T09:35:22.701Z,5.61
2024-01-12T09:37:49.291Z,5.67
2024-01-12T09:40:15.879Z,5.72
2024-01-12T09:42:49.295Z,5.78
2024-01-12T09:45:22.334Z,5.77
2024-01-12T09:47:51.193Z,5.77
2024-01-12T09:50:22.739Z,5.83
2024-01-12T09:52:50.199Z,5.86
2024-01-12T09:55:16.663Z,5.90
2024-01-12T09:57:45.746Z,5.96
2024-01-12T10:00:15.770Z,6.02
2024-01-12T10:02:42.461Z,6.08
2024-01-12T10:05:09.496Z,6.09
2024-01-12T10:07:36.096Z,6.13
2024-01-12T10:10:02.755Z,6.14
2024-01-12T10:12:29.230Z,6.18
2024-01-12T10:15:03.990Z,6.24
2024-01-12T10:17:34.960Z,6.27
2024-01-12T10:20:02.503Z,6.29
2024-01-12T10:22:29.095Z,6.32
2024-01-12T10:25:03.865Z,6.38
2024-01-12T10:27:31.213Z,6.40
2024-01-12T10:29:57.937Z,6.44
2024-01-12T10:32:25.367Z,6.49
2024-01-12T10:34:54.234Z,6.50
2024-01-12T10:37:21.720Z,6.50
2024-01-12T10:39:50.778Z,6.54
2024-01-12T10:42:18.388Z,6.49
2024-01-12T10:44:46.221Z,6.51
2024-01-12T10:47:18.434Z,6.58
2024-01-12T10:49:52.445Z,6.61
2024-01-12T10:53:00.984Z,6.69
2024-01-12T10:55:34.867Z,6.67
2024-01-12T10:58:03.180Z,6.64
2024-01-12T11:00:32.988Z,6.70
2024-01-12T11:03:01.502Z,6.74
2024-01-12T11:05:29.611Z,6.79
2024-01-12T11:08:00.409Z,6.86
2024-01-12T11:10:31.254Z,6.90
2024-01-12T11:13:01.082Z,6.85
2024-01-12T11:15:29.688Z,6.85
2024-01-12T11:17:56.405Z,6.89
2024-01-12T11:20:23.136Z,6.94
2024-01-12T11:22:50.734Z,7.00
2024-01-12T11:25:20.578Z,7.05
2024-01-12T11:27:52.047Z,7.07
2024-01-12T11:30:23.454Z,7.04
2024-01-12T11:33:01.268Z,7.10
2024-01-12T11:35:30.614Z,7.06
2024-01-12T11:38:07.113Z,7.07
2024-01-12T11:40:36.914Z,7.02
2024-01-12T11:43:05.169Z,6.96
2024-01-12T11:45:33.652Z,7.00
2024-01-12T11:48:03.571Z,7.04
2024-01-12T11:50:30.259Z,7.06
2024-01-12T11:52:58.194Z,7.08
2024-01-12T11:55:25.429Z,7.11
2024-01-12T11:57:54.285Z,7.18
2024-01-12T12:00:22.097Z,7.20
2024-01-12T12:02:53.799Z,7.18
2024-01-12T12:05:23.666Z,7.20
2024-01-12T12:07:50.294Z,7.20
2024-01-12T12:10:19.654Z,7.25
2024-01-12T12:12:48.085Z,7.26
2024-01-12T12:15:15.866Z,7.24
2024-01-12T12:17:47.377Z,7.26
2024-01-12T12:20:14.857Z,7.32
2024-01-12T12:22:43.592Z,7.36
2024-01-12T12:25:14.034Z,7.38
2024-01-12T12:27:41.759Z,7.30
2024-01-12T12:30:11.929Z,7.27
2024-01-12T12:32:46.739Z,7.28
2024-01-12T12:35:21.637Z,7.30
2024-01-12T12:37:49.072Z,7.39
2024-01-12T12:40:16.697Z,7.42
2024-01-12T12:42:45.260Z,7.46
2024-01-12T12:45:12.794Z,7.45
2024-01-12T12:47:40.851Z,7.42
2024-01-12T12:50:12.910Z,7.31
2024-01-12T12:52:41.278Z,7.27
2024-01-12T12:55:08.801Z,7.26
2024-01-12T12:57:36.391Z,7.26
2024-01-12T13:00:06.352Z,7.27
2024-01-12T13:02:33.126Z,7.29
2024-01-12T13:04:59.731Z,7.27
2024-01-12T13:07:26.208Z,7.24
2024-01-12T13:09:56.905Z,7.25
2024-01-12T13:12:24.629Z,7.26
2024-01-12T13:14:52.714Z,7.26
2024-01-12T13:17:21.502Z,7.26
2024-01-12T13:19:48.406Z,7.29
2024-01-12T13:22:15.053Z,7.34
2024-01-12T13:24:41.575Z,7.39
2024-01-12T13:27:08.528Z,7.41
2024-01-12T13:29:35.091Z,7.33
2024-01-12T13:32:03.968Z,7.34
2024-01-12T13:34:30.872Z,7.33
2024-01-12T13:37:01.691Z,7.38
2024-01-12T13:39:28.525Z,7.39
2024-01-12T13:41:55.161Z,7.39
2024-01-12T13:44:21.882Z,7.43
2024-01-12T13:46:48.407Z,7.48
2024-01-12T13:49:15.145Z,7.46
2024-01-12T13:51:42.844Z,7.43
2024-01-12T13:54:09.835Z,7.46
2024-01-12T13:56:36.415Z,7.48
2024-01-12T13:59:04.306Z,7.51
2024-01-12T14:01:34.137Z,7.53
2024-01-12T14:04:01.786Z,7.55
2024-01-12T14:06:28.480Z,7.58
2024-01-12T14:08:55.353Z,7.50
2024-01-12T14:11:21.858Z,7.51
2024-01-12T14:13:48.967Z,7.49
2024-01-12T14:16:16.072Z,7.47
2024-01-12T14:18:42.699Z,7.46
2024-01-12T14:21:10.373Z,7.40
2024-01-12T14:23:36.992Z,7.38
2024-01-12T14:26:04.145Z,7.39
2024-01-12T14:28:33.356Z,7.41
2024-01-12T14:31:02.599Z,7.44
2024-01-12T14:33:33.707Z,7.50
2024-01-12T14:36:04.772Z,7.46
2024-01-12T14:38:31.716Z,7.35
2024-01-12T14:40:58.177Z,7.31
2024-01-12T14:43:24.564Z,7.22
2024-01-12T14:45:51.228Z,7.15
2024-01-12T14:48:18.219Z,7.08
2024-01-12T14:50:46.936Z,7.08
2024-01-12T14:53:13.723Z,7.09
2024-01-12T14:55:40.938Z,7.01
2024-01-12T14:58:07.502Z,6.96
2024-01-12T15:00:34.124Z,7.00
2024-01-12T15:03:00.970Z,6.98
2024-01-12T15:05:27.751Z,6.94
2024-01-12T15:07:54.423Z,6.91
2024-01-12T15:10:21.582Z,6.92
2024-01-12T15:12:48.173Z,6.93
2024-01-12T15:15:14.936Z,6.96
2024-01-12T15:17:42.023Z,6.90
2024-01-12T15:20:09.672Z,6.88
2024-01-12T15:22:36.383Z,6.82
2024-01-12T15:25:02.961Z,6.77
2024-01-12T15:27:29.451Z,6.76
2024-01-12T15:29:56.044Z,6.76
2024-01-12T15:32:22.775Z,6.73
2024-01-12T15:34:49.866Z,6.75
2024-01-12T15:37:17.372Z,6.73
2024-01-12T15:39:44.894Z,6.72
2024-01-12T15:42:11.493Z,6.71
2024-01-12T15:44:38.018Z,6.71
2024-01-12T15:47:04.750Z,6.70
2024-01-12T15:49:31.830Z,6.74
2024-01-12T15:51:59.083Z,6.75
2024-01-12T15:54:25.483Z,6.70
2024-01-12T15:56:52.086Z,6.71
2024-01-12T15:59:18.528Z,6.72
2024-01-12T16:01:45.064Z,6.70
2024-01-12T16:04:11.666Z,6.69
2024-01-12T16:06:38.326Z,6.75
2024-01-12T16:09:04.986Z,6.71
2024-01-12T16:11:32.687Z,6.72
2024-01-12T16:13:59.538Z,6.69
2024-01-12T16:16:26.074Z,6.71
2024-01-12T16:19:00.136Z,6.71
2024-01-12T16:21:36.270Z,6.65
2024-01-12T16:24:03.925Z,6.62
2024-01-12T16:26:36.276Z,6.64
2024-01-12T16:29:02.738Z,6.66
2024-01-12T16:31:29.156Z,6.67
2024-01-12T16:33:55.720Z,6.67
2024-01-12T16:36:22.215Z,6.69
2024-01-12T16:38:48.650Z,6.64
2024-01-12T16:41:17.930Z,6.66
2024-01-12T16:43:44.413Z,6.63
2024-01-12T16:46:10.929Z,6.61
2024-01-12T16:48:37.516Z,6.57
2024-01-12T16:51:04.249Z,6.58
2024-01-12T16:53:30.987Z,6.58
2024-01-12T16:55:57.508Z,6.59
2024-01-12T16:58:23.959Z,6.61
2024-01-12T17:00:50.632Z,6.62
2024-01-12T17:03:17.242Z,6.60
2024-01-12T17:05:44.031Z,6.54
2024-01-12T17:08:10.604Z,6.55
2024-01-12T17:10:37.377Z,6.57
2024-01-12T17:13:04.018Z,6.57
2024-01-12T17:15:30.427Z,6.56
2024-01-12T17:17:57.044Z,6.57
2024-01-12T17:20:23.621Z,6.55
2024-01-12T17:22:50.067Z,6.56
2024-01-12T17:25:16.502Z,6.56
2024-01-12T17:27:42.976Z,6.56
2024-01-12T17:30:10.299Z,6.55
2024-01-12T17:32:36.988Z,6.52
2024-01-12T17:35:03.844Z,6.52
2024-01-12T17:37:30.622Z,6.50
2024-01-12T17:39:57.156Z,6.49
2024-01-12T17:42:23.922Z,6.49
2024-01-12T17:44:50.428Z,6.48
2024-01-12T17:47:19.201Z,6.47
2024-01-12T17:49:45.802Z,6.43
2024-01-12T17:52:12.396Z,6.41
2024-01-12T17:54:38.863Z,6.41
2024-01-12T17:57:05.607Z,6.38
2024-01-12T17:59:33.165Z,6.37
2024-01-12T18:01:59.675Z,6.33
2024-01-12T18:04:26.159Z,6.33
2024-01-12T18:06:52.762Z,6.33
2024-01-12T18:09:19.318Z,6.38
2024-01-12T18:11:45.929Z,6.40
2024-01-12T18:14:12.474Z,6.38
2024-01-12T18:16:40.922Z,6.38
2024-01-12T18:19:09.257Z,6.37
2024-01-12T18:21:35.784Z,6.32
2024-01-12T18:24:02.302Z,6.31
2024-01-12T18:26:28.834Z,6.29
2024-01-12T18:28:55.375Z,6.29
2024-01-12T18:31:23.125Z,6.27
2024-01-12T18:33:49.984Z,6.26
2024-01-12T18:36:16.668Z,6.22
2024-01-12T18:38:43.521Z,6.15
2024-01-12T18:41:10.058Z,6.16
2024-01-12T18:43:36.601Z,6.15
2024-01-12T18:46:03.126Z,6.13
2024-01-12T18:48:30.631Z,6.10
2024-01-12T18:50:57.238Z,6.07
2024-01-12T18:53:24.094Z,6.06
2024-01-12T18:55:50.605Z,6.06
2024-01-12T18:58:17.073Z,6.05
2024-01-12T19:00:43.612Z,6.05
2024-01-12T19:03:10.231Z,6.07
2024-01-12T19:05:36.847Z,6.09
2024-01-12T19:08:04.223Z,6.10
2024-01-12T19:10:30.716Z,6.09
2024-01-12T19:12:57.507Z,6.09
2024-01-12T19:15:24.029Z,6.12
2024-01-12T19:17:50.819Z,6.14
2024-01-12T19:20:17.575Z,6.13
2024-01-12T19:22:44.132Z,6.11
2024-01-12T19:25:10.729Z,6.11
2024-01-12T19:27:37.206Z,6.13
2024-01-12T19:30:06.587Z,6.12
2024-01-12T19:32:33.856Z,6.12
2024-01-12T19:35:01.264Z,6.11
2024-01-12T19:37:30.547Z,6.12
2024-01-12T19:39:59.578Z,6.16
2024-01-12T19:42:26.131Z,6.14
2024-01-12T19:44:52.701Z,6.14
2024-01-12T19:47:19.222Z,6.13
2024-01-12T19:49:45.635Z,6.14
2024-01-12T19:52:12.156Z,6.15
2024-01-12T19:54:38.600Z,6.15
2024-01-12T19:57:05.802Z,6.15
2024-01-12T19:59:32.324Z,6.13
2024-01-12T20:01:58.867Z,6.13
2024-01-12T20:04:37.161Z,6.11
2024-01-12T20:07:08.016Z,6.10
2024-01-12T20:09:34.647Z,6.08
2024-01-12T20:12:01.256Z,6.04
2024-01-12T20:14:27.880Z,6.05
2024-01-12T20:16:54.852Z,6.06
2024-01-12T20:19:21.602Z,6.07
2024-01-12T20:21:48.295Z,6.05
2024-01-12T20:24:14.856Z,6.03
2024-01-12T20:26:41.362Z,6.04
2024-01-12T20:29:07.802Z,6.01
2024-01-12T20:31:34.244Z,6.01
2024-01-12T20:34:00.827Z,5.99
2024-01-12T20:36:30.262Z,5.97
2024-01-12T20:38:56.760Z,5.97
2024-01-12T20:41:23.373Z,5.94
2024-01-12T20:43:49.861Z,5.93
2024-01-12T20:46:16.365Z,5.95
2024-01-12T20:48:42.885Z,5.91
2024-01-12T20:51:09.746Z,5.84
2024-01-12T20:53:36.325Z,5.83
2024-01-12T20:56:03.034Z,5.86
2024-01-12T20:58:29.473Z,5.87
2024-01-12T21:00:58.294Z,5.88
2024-01-12T21:03:25.056Z,5.91
2024-01-12T21:05:51.774Z,5.93
2024-01-12T21:08:18.382Z,5.95
2024-01-12T21:10:44.914Z,5.94
2024-01-12T21:13:11.367Z,5.91
2024-01-12T21:15:37.793Z,5.90
2024-01-12T21:18:04.534Z,5.87
2024-01-12T21:20:31.191Z,5.85
2024-01-12T21:22:58.696Z,5.83
2024-01-12T21:25:26.071Z,5.79
2024-01-12T21:27:52.527Z,5.75
2024-01-12T21:30:19.414Z,5.73
2024-01-12T21:32:46.372Z,5.72
2024-01-12T21:35:13.193Z,5.67
2024-01-12T21:37:39.702Z,5.61
2024-01-12T21:40:07.153Z,5.61
2024-01-12T21:42:33.731Z,5.62
2024-01-12T21:45:00.509Z,5.66
2024-01-12T21:47:27.249Z,5.70
2024-01-12T21:49:53.992Z,5.72
2024-01-12T21:52:20.539Z,5.71
2024-01-12T21:54:47.075Z,5.73
2024-01-12T21:57:13.567Z,5.72
2024-01-12T21:59:40.253Z,5.73
2024-01-12T22:02:07.063Z,5.73
2024-01-12T22:04:33.590Z,5.72
2024-01-12T22:07:01.242Z,5.68
2024-01-12T22:09:28.580Z,5.67
2024-01-12T22:11:55.230Z,5.66
2024-01-12T22:14:21.748Z,5.67
2024-01-12T22:16:48.406Z,5.68
2024-01-12T22:19:15.070Z,5.70
2024-01-12T22:21:41.689Z,5.67
2024-01-12T22:24:08.173Z,5.67
2024-01-12T22:26:34.776Z,5.65
2024-01-12T22:29:01.273Z,5.67
2024-01-12T22:31:27.714Z,5.68
2024-01-12T22:33:54.487Z,5.64
2024-01-12T22:36:21.144Z,5.68
2024-01-12T22:38:47.746Z,5.73
2024-01-12T22:41:14.238Z,5.74
2024-01-12T22:43:40.672Z,5.77
2024-01-12T22:46:07.388Z,5.77
2024-01-12T22:48:34.021Z,5.76
2024-01-12T22:51:00.674Z,5.75
2024-01-12T22:53:27.857Z,5.75
2024-01-12T22:55:54.588Z,5.73
2024-01-12T22:58:21.112Z,5.75
2024-01-12T23:00:48.661Z,5.71
2024-01-12T23:03:15.783Z,5.73
2024-01-12T23:05:43.884Z,5.73
2024-01-12T23:08:10.524Z,5.72
2024-01-12T23:10:37.105Z,5.72
2024-01-12T23:13:03.647Z,5.74
2024-01-12T23:15:30.078Z,5.75
2024-01-12T23:17:56.702Z,5.71
2024-01-12T23:20:23.346Z,5.72
2024-01-12T23:22:49.846Z,5.71
2024-01-12T23:25:16.406Z,5.69
2024-01-12T23:27:44.460Z,5.69
2024-01-12T23:30:11.429Z,5.71
2024-01-12T23:32:38.416Z,5.71
2024-01-12T23:35:06.450Z,5.72
2024-01-12T23:37:33.080Z,5.62
2024-01-12T23:39:59.597Z,5.52
2024-01-12T23:42:26.194Z,5.54
2024-01-12T23:44:52.677Z,5.55
2024-01-12T23:47:19.218Z,5.56
2024-01-12T23:49:46.046Z,5.59
2024-01-12T23:52:12.753Z,5.59
2024-01-12T23:54:39.194Z,5.60
2024-01-12T23:57:05.979Z,5.57
2024-01-12T23:59:32.884Z,5.58
